createdAt,value
2022-10-31T00:03:00.144Z,14.7
2022-10-31T00:08:07.342Z,14.7
2022-10-31T00:13:13.801Z,14.7
2022-10-31T00:18:20.102Z,14.6
2022-10-31T00:23:16.451Z,14.5
2022-10-31T00:28:33.102Z,14.5
2022-10-31T00:33:39.245Z,14.4
2022-10-31T00:38:45.627Z,14.3
2022-10-31T00:43:42.016Z,14.3
2022-10-31T00:48:58.420Z,14.2
2022-10-31T00:54:04.980Z,14.1
2022-10-31T00:59:11.388Z,14.1
2022-10-31T01:04:17.741Z,14.0
2022-10-31T01:09:25.688Z,13.9
2022-10-31T01:14:32.104Z,13.9
2022-10-31T01:19:28.459Z,13.8
2022-10-31T01:25:08.898Z,13.7
2022-10-31T01:29:51.256Z,13.7
2022-10-31T01:34:57.615Z,13.6
2022-10-31T01:40:28.031Z,13.5
2022-10-31T01:45:10.385Z,13.5
2022-10-31T01:50:16.749Z,13.4
2022-10-31T01:55:26.340Z,13.3
2022-10-31T02:00:29.546Z,13.3
2022-10-31T02:05:55.975Z,13.2
2022-10-31T02:10:32.318Z,13.1
2022-10-31T02:15:52.758Z,13.1
2022-10-31T02:20:55.120Z,13.0
2022-10-31T02:26:01.491Z,13.0
2022-10-31T02:31:07.901Z,12.9
2022-10-31T02:36:14.282Z,12.8
2022-10-31T02:41:10.639Z,12.8
2022-10-31T02:46:17.036Z,12.8
2022-10-31T02:51:37.055Z,12.7
2022-10-31T02:56:43.440Z,12.6
2022-10-31T03:02:50.191Z,12.6
2022-10-31T03:06:56.447Z,12.5
2022-10-31T03:11:52.806Z,12.5
2022-10-31T03:17:33.252Z,12.4
2022-10-31T03:27:22.398Z,12.3
2022-10-31T03:32:48.856Z,12.2
2022-10-31T03:37:35.212Z,12.2
2022-10-31T03:47:48.246Z,12.1
2022-10-31T03:53:14.672Z,12.1
2022-10-31T03:58:01.664Z,12.0
2022-10-31T04:03:30.486Z,12.0
2022-10-31T04:08:13.867Z,12.0
2022-10-31T04:13:10.319Z,11.9
2022-10-31T04:18:26.635Z,11.9
2022-10-31T04:23:23.000Z,11.8
2022-10-31T04:34:19.923Z,11.8
2022-10-31T04:39:31.292Z,11.8
2022-10-31T04:44:33.670Z,11.8
2022-10-31T04:49:40.068Z,11.8
2022-10-31T04:54:46.429Z,11.7
2022-10-31T04:59:52.805Z,11.6
2022-10-31T05:04:59.215Z,11.6
2022-10-31T05:10:09.162Z,11.5
2022-10-31T05:15:15.535Z,11.4
2022-10-31T05:25:47.158Z,11.4
2022-10-31T05:35:47.029Z,11.2
2022-10-31T05:40:53.557Z,11.1
2022-10-31T05:45:59.932Z,11.1
2022-10-31T05:51:06.313Z,11.0
2022-10-31T05:56:12.722Z,10.9
2022-10-31T06:01:19.162Z,10.9
2022-10-31T06:07:37.606Z,10.8
2022-10-31T06:11:31.876Z,10.7
2022-10-31T06:16:38.390Z,10.7
2022-10-31T06:21:44.896Z,10.6
2022-10-31T06:31:47.662Z,10.5
2022-10-31T06:36:54.032Z,10.4
2022-10-31T06:47:06.777Z,10.4
2022-10-31T06:52:23.180Z,10.3
2022-10-31T06:57:19.889Z,10.3
2022-10-31T07:02:36.300Z,10.3
2022-10-31T07:07:32.649Z,10.3
2022-10-31T07:12:48.070Z,10.2
2022-10-31T07:17:59.435Z,10.3
2022-10-31T07:33:14.572Z,10.4
2022-10-31T07:38:21.051Z,10.4
2022-10-31T07:43:27.368Z,10.5
2022-10-31T07:48:23.719Z,10.6
2022-10-31T07:53:40.255Z,10.6
2022-10-31T07:58:36.830Z,10.8
2022-10-31T08:06:41.979Z,10.9
2022-10-31T08:14:06.538Z,11.0
2022-10-31T08:19:32.961Z,11.1
2022-10-31T08:24:09.267Z,11.3
2022-10-31T08:29:15.680Z,11.6
2022-10-31T08:34:55.101Z,11.7
2022-10-31T08:44:49.757Z,12.2
2022-10-31T08:49:52.139Z,12.5
2022-10-31T08:54:57.527Z,12.8
2022-10-31T09:00:04.982Z,13.0
2022-10-31T09:05:11.348Z,13.3
2022-10-31T09:10:17.706Z,13.5
2022-10-31T09:25:40.335Z,14.2
2022-10-31T09:30:46.735Z,14.4
2022-10-31T09:35:53.676Z,14.6
2022-10-31T09:41:00.105Z,14.8
2022-10-31T09:46:06.470Z,15.0
2022-10-31T09:51:12.964Z,15.2
2022-10-31T09:56:19.408Z,15.5
2022-10-31T10:01:25.979Z,15.7
2022-10-31T10:06:32.191Z,15.9
2022-10-31T10:12:02.613Z,16.2
2022-10-31T10:16:44.971Z,16.5
2022-10-31T10:21:51.434Z,17.0
2022-10-31T10:30:18.728Z,18.5
2022-10-31T10:33:28.510Z,19.5
2022-10-31T10:38:45.917Z,19.5
2022-10-31T10:43:42.318Z,20.3
2022-10-31T10:49:35.818Z,21.3
2022-10-31T11:04:55.990Z,21.5
2022-10-31T11:20:52.256Z,21.1
2022-10-31T11:25:59.689Z,21.0
2022-10-31T11:30:56.056Z,20.9
2022-10-31T11:36:13.063Z,20.8
2022-10-31T11:42:08.549Z,20.7
2022-10-31T11:46:29.856Z,20.6
2022-10-31T11:51:32.267Z,20.5
2022-10-31T11:56:38.727Z,20.4
2022-10-31T12:01:45.362Z,20.3
2022-10-31T12:06:51.504Z,20.2
2022-10-31T12:11:47.857Z,20.1
2022-10-31T12:17:04.253Z,19.9
2022-10-31T12:22:10.687Z,19.8
2022-10-31T12:27:41.070Z,19.7
2022-10-31T12:32:13.424Z,19.6
2022-10-31T12:37:19.946Z,19.5
2022-10-31T12:42:36.330Z,19.5
2022-10-31T12:47:32.701Z,19.5
2022-10-31T12:53:13.233Z,19.4
2022-10-31T12:57:55.481Z,19.4
2022-10-31T13:02:51.844Z,19.4
2022-10-31T13:07:58.716Z,19.3
2022-10-31T13:13:04.810Z,19.3
2022-10-31T13:18:21.206Z,19.3
2022-10-31T13:23:49.924Z,19.2
2022-10-31T13:28:32.989Z,19.2
2022-10-31T13:33:30.347Z,19.1
2022-10-31T13:38:36.730Z,19.1
2022-10-31T13:43:53.151Z,19.1
2022-10-31T13:48:59.492Z,19.1
2022-10-31T13:54:09.890Z,19.1
2022-10-31T13:59:02.258Z,19.1
2022-10-31T14:04:23.951Z,19.1
2022-10-31T14:09:25.003Z,19.0
2022-10-31T14:14:21.393Z,19.0
2022-10-31T14:19:27.787Z,18.9
2022-10-31T14:24:34.183Z,18.9
2022-10-31T14:29:50.904Z,18.8
2022-10-31T14:34:56.964Z,18.8
2022-10-31T14:41:15.463Z,18.7
2022-10-31T14:44:59.723Z,18.6
2022-10-31T14:55:22.462Z,18.5
2022-10-31T15:00:28.865Z,18.4
2022-10-31T15:05:25.215Z,18.3
2022-10-31T15:10:31.742Z,18.3
2022-10-31T15:15:52.167Z,18.2
2022-10-31T15:29:02.162Z,18.0
2022-10-31T15:31:48.349Z,18.0
2022-10-31T15:47:14.522Z,17.8
2022-10-31T15:52:21.022Z,17.7
2022-10-31T15:57:23.426Z,17.7
2022-10-31T16:04:42.271Z,17.6
2022-10-31T16:14:00.560Z,17.5
2022-10-31T16:29:03.199Z,17.3
2022-10-31T16:33:14.107Z,17.1
2022-10-31T16:38:16.164Z,17.2
2022-10-31T16:43:59.967Z,17.0
2022-10-31T16:48:38.302Z,16.8
2022-10-31T16:54:08.536Z,16.8
2022-10-31T17:05:52.638Z,16.6
2022-10-31T17:09:40.515Z,16.6
2022-10-31T17:09:44.558Z,16.5
2022-10-31T17:18:08.302Z,16.5
2022-10-31T17:20:23.412Z,16.4
2022-10-31T17:25:25.932Z,16.4
2022-10-31T17:31:23.549Z,16.3
2022-10-31T17:40:31.764Z,16.2
2022-10-31T17:45:28.111Z,16.2
2022-10-31T17:50:44.528Z,16.1
2022-10-31T17:55:50.936Z,16.1
2022-10-31T18:01:01.366Z,16.1
2022-10-31T18:06:03.673Z,16.0
2022-10-31T18:11:10.193Z,16.0
2022-10-31T18:16:16.546Z,16.0
2022-10-31T18:21:26.949Z,15.9
2022-10-31T18:26:29.366Z,15.9
2022-10-31T18:31:35.790Z,15.8
2022-10-31T18:36:42.174Z,15.8
2022-10-31T18:42:12.637Z,15.8
2022-10-31T18:46:44.920Z,15.7
2022-10-31T18:52:05.316Z,15.7
2022-10-31T18:56:57.681Z,15.6
2022-10-31T19:02:13.282Z,15.6
2022-10-31T19:07:20.489Z,15.5
2022-10-31T19:12:26.990Z,15.5
2022-10-31T19:17:33.487Z,15.5
2022-10-31T19:22:39.852Z,15.4
2022-10-31T19:27:46.225Z,15.3
2022-10-31T19:32:52.643Z,15.3
2022-10-31T19:37:59.468Z,15.2
2022-10-31T19:43:05.388Z,15.2
2022-10-31T19:48:11.986Z,15.1
2022-10-31T19:58:25.058Z,15.0
2022-10-31T20:03:59.553Z,15.0
2022-10-31T20:08:27.811Z,14.9
2022-10-31T20:13:58.226Z,14.9
2022-10-31T20:29:03.355Z,14.7
2022-10-31T20:34:09.781Z,14.6
2022-10-31T20:39:20.235Z,14.5
2022-10-31T20:44:12.555Z,14.5
2022-10-31T20:49:28.953Z,14.4
2022-10-31T20:54:25.341Z,14.4
2022-10-31T20:59:41.832Z,14.3
2022-10-31T21:04:48.234Z,14.2
2022-10-31T21:10:14.981Z,14.2
2022-10-31T21:14:51.123Z,14.1
2022-10-31T21:19:56.636Z,14.1
2022-10-31T21:25:14.008Z,14.1
2022-10-31T21:30:21.994Z,14.0
2022-10-31T21:35:31.375Z,14.0
2022-10-31T21:40:34.904Z,13.9
2022-10-31T21:45:41.359Z,13.9
2022-10-31T21:50:47.786Z,13.9
2022-10-31T21:55:54.168Z,13.8
2022-10-31T22:01:00.677Z,13.8
2022-10-31T22:06:06.970Z,13.8
2022-10-31T22:11:13.350Z,13.7
2022-10-31T22:16:39.927Z,13.7
2022-10-31T22:21:26.352Z,13.6
2022-10-31T22:26:32.817Z,13.6
2022-10-31T22:31:29.169Z,13.5
2022-10-31T22:36:45.726Z,13.5
2022-10-31T22:41:52.691Z,13.5
2022-10-31T22:46:59.085Z,13.4
2022-10-31T22:52:05.557Z,13.4
2022-10-31T22:57:11.973Z,13.3
2022-10-31T23:02:18.625Z,13.3
2022-10-31T23:07:32.849Z,13.3
2022-10-31T23:12:31.311Z,13.2
2022-10-31T23:17:37.739Z,13.1
2022-10-31T23:22:44.142Z,13.1
2022-10-31T23:27:50.472Z,13.1
2022-10-31T23:32:57.029Z,13.0
2022-10-31T23:38:03.791Z,13.0
2022-10-31T23:43:50.989Z,13.0
2022-10-31T23:48:54.374Z,13.0
2022-10-31T23:54:00.837Z,13.0
2022-10-31T23:58:57.162Z,12.9
